Time;durP1;ratioP1;P1;durP2;ratioP2;P2;SDS_P1;SDS_P2;PMS_P1;PMS_P2;Temp;Humidity;BMP_temperature;BMP_pressure;BME280_temperature;BME280_humidity;BME280_pressure;Samples;Min_cycle;Max_cycle;Signal;HPM_P1;HPM_P2
2023/01/02 00:01:05;;;;;;;2.43;1.40;;;16.40;69.20;;;16.92;41.71;98818.13;4967559;28;124002;-70
2023/01/02 00:03:31;;;;;;;3.47;1.70;;;16.40;69.20;;;16.94;41.72;98813.00;4967756;28;123932;-70
2023/01/02 00:06:02;;;;;;;3.73;1.70;;;16.40;69.10;;;16.95;41.74;98813.81;4967257;28;114463;-70
2023/01/02 00:08:29;;;;;;;3.00;1.40;;;16.50;69.10;;;16.97;41.76;98800.31;4966944;28;113967;-70
2023/01/02 00:10:55;;;;;;;2.70;1.80;;;16.50;69.00;;;16.97;41.67;98803.09;4967143;28;124155;-70
2023/01/02 00:13:22;;;;;;;3.60;1.60;;;16.40;69.00;;;16.99;41.70;98804.38;4967917;28;124814;-70
2023/01/02 00:15:48;;;;;;;2.27;1.53;;;16.50;69.00;;;17.01;41.55;98801.25;4963170;28;114058;-70
2023/01/02 00:18:15;;;;;;;2.40;1.60;;;16.90;69.30;;;17.02;41.47;98802.03;4966524;28;113968;-70
2023/01/02 00:20:42;;;;;;;2.60;1.70;;;16.50;68.90;;;17.02;41.52;98791.69;4968896;28;123691;-70
2023/01/02 00:23:09;;;;;;;2.33;1.60;;;16.60;68.90;;;17.03;41.59;98790.50;4964608;28;123647;-70
2023/01/02 00:25:36;;;;;;;3.57;1.93;;;16.50;68.70;;;17.03;41.38;98796.09;4969541;28;114642;-70
2023/01/02 00:28:03;;;;;;;2.67;1.70;;;16.50;68.60;;;17.05;41.50;98793.75;4970611;28;113886;-70
2023/01/02 00:30:29;;;;;;;3.83;1.80;;;16.50;68.60;;;17.05;41.41;98793.75;4969597;28;124295;-70
2023/01/02 00:32:56;;;;;;;2.97;1.40;;;16.60;68.70;;;17.09;41.28;98797.47;4973936;28;123792;-70
2023/01/02 00:35:22;;;;;;;2.83;1.43;;;16.60;68.70;;;17.11;41.34;98778.38;4960939;28;114488;-70
2023/01/02 00:37:50;;;;;;;3.00;1.50;;;16.60;68.60;;;17.13;41.24;98773.25;4969996;28;113861;-70
2023/01/02 00:40:17;;;;;;;3.40;1.73;;;16.60;68.60;;;17.15;41.40;98770.91;4953538;28;123298;-70
2023/01/02 00:42:43;;;;;;;4.47;1.60;;;16.60;68.50;;;17.18;41.26;98770.19;4969386;28;123938;-70
2023/01/02 00:45:10;;;;;;;1.83;1.30;;;16.60;68.40;;;17.21;41.01;98766.69;4975456;28;115734;-70
2023/01/02 00:47:37;;;;;;;4.13;1.40;;;16.70;68.40;;;17.21;40.98;98761.09;4970826;28;114941;-70
2023/01/02 00:50:04;;;;;;;3.57;1.40;;;16.70;68.20;;;17.22;40.99;98765.53;4968037;28;124095;-70
2023/01/02 00:52:31;;;;;;;3.87;1.77;;;16.70;68.10;;;17.23;40.91;98767.16;4971498;28;123246;-70
2023/01/02 00:54:57;;;;;;;2.63;1.50;;;16.70;68.00;;;17.26;40.99;98762.03;4968787;28;114380;-70
2023/01/02 00:57:23;;;;;;;3.20;1.60;;;16.70;68.00;;;17.27;40.86;98763.63;4971394;28;114681;-70
2023/01/02 00:59:50;;;;;;;4.80;1.80;;;16.80;67.90;;;17.28;40.74;98765.28;4968165;28;124033;-70
2023/01/02 01:02:16;;;;;;;4.50;1.77;;;16.70;67.80;;;17.29;40.68;98758.50;4967969;28;125877;-70
2023/01/02 01:04:43;;;;;;;4.40;1.60;;;16.80;67.90;;;17.30;40.68;98774.09;4967548;28;114376;-70
2023/01/02 01:07:09;;;;;;;2.50;1.70;;;16.80;67.80;;;17.30;40.78;98780.50;4968328;28;114403;-70
2023/01/02 01:09:36;;;;;;;2.43;1.70;;;16.80;67.70;;;17.30;40.70;98777.72;4967198;28;124126;-70
2023/01/02 01:12:03;;;;;;;2.30;1.63;;;16.80;67.70;;;17.30;40.89;98791.69;4967726;28;123677;-70
2023/01/02 01:14:29;;;;;;;2.70;1.87;;;16.80;67.90;;;17.25;41.16;98793.91;4965972;28;114142;-69
2023/01/02 01:16:56;;;;;;;4.00;2.23;;;16.80;68.20;;;17.17;41.45;98790.13;4967920;28;114011;-69
2023/01/02 01:19:22;;;;;;;5.97;2.47;;;16.60;68.30;;;17.03;41.77;98793.28;4968307;28;124419;-71
2023/01/02 01:21:48;;;;;;;8.63;2.77;;;16.60;68.80;;;16.88;42.10;98792.09;4967771;28;123747;-70
2023/01/02 01:24:15;;;;;;;7.20;2.87;;;16.40;69.00;;;16.72;42.42;98797.59;4968095;28;114427;-70
2023/01/02 01:26:41;;;;;;;6.50;3.30;;;16.20;69.50;;;16.55;42.67;98790.31;4968822;28;113978;-70
2023/01/02 01:29:08;;;;;;;6.60;3.20;;;16.00;69.90;;;16.43;42.90;98795.09;4967436;28;124311;-71
2023/01/02 01:31:34;;;;;;;5.33;2.63;;;15.90;70.10;;;16.32;42.92;98794.78;4966348;28;123805;-70
2023/01/02 01:34:01;;;;;;;4.57;2.53;;;15.80;70.10;;;16.23;43.28;98794.91;4966700;28;115489;-71
2023/01/02 01:36:27;;;;;;;5.90;2.37;;;15.80;70.30;;;16.20;43.24;98805.91;4953387;28;114291;-71
2023/01/02 01:38:54;;;;;;;7.40;2.50;;;15.70;70.30;;;16.18;43.38;98806.28;4968368;28;123351;-71
2023/01/02 01:41:24;;;;;;;3.10;2.47;;;15.70;70.30;;;16.17;43.41;98812.19;5002653;28;122779;-70
2023/01/02 01:43:57;;;;;;;4.23;3.10;;;15.70;70.40;;;16.17;43.32;98807.44;4967723;28;114255;-71
2023/01/02 01:46:44;;;;;;;3.83;2.33;;;15.70;70.50;;;16.13;43.63;98807.31;4992811;28;114314;-71
2023/01/02 01:49:21;;;;;;;4.17;2.60;;;15.70;70.70;;;16.12;43.66;98805.72;4965455;28;123893;-71
2023/01/02 01:52:01;;;;;;;3.60;2.43;;;15.70;70.80;;;16.07;43.53;98819.06;4966583;28;123784;-70
2023/01/02 01:54:35;;;;;;;3.70;2.30;;;15.60;70.80;;;16.04;43.76;98819.75;4965610;28;113865;-70
2023/01/02 01:57:16;;;;;;;3.50;2.60;;;15.60;71.00;;;16.03;43.83;98813.38;4976966;28;114343;-71
2023/01/02 01:59:44;;;;;;;3.90;2.17;;;15.50;71.10;;;16.01;43.82;98809.31;4962489;28;124233;-70
2023/01/02 02:02:11;;;;;;;3.50;2.37;;;15.50;71.10;;;16.01;44.01;98814.88;4965147;28;122633;-71
2023/01/02 02:04:39;;;;;;;5.60;2.50;;;15.50;71.20;;;16.01;43.51;98814.88;4967682;28;114109;-71
2023/01/02 02:07:06;;;;;;;3.83;2.13;;;15.60;71.40;;;15.99;44.16;98818.03;4949968;28;113601;-70
2023/01/02 02:09:41;;;;;;;4.53;2.53;;;16.10;72.00;;;15.98;44.04;98810.00;4967907;28;123606;-71
2023/01/02 02:12:08;;;;;;;3.93;2.47;;;15.50;71.70;;;15.96;44.34;98806.75;4965876;28;124346;-70
2023/01/02 02:14:35;;;;;;;4.17;2.60;;;15.50;71.70;;;15.96;44.32;98798.38;4967815;28;114762;-71
2023/01/02 02:17:11;;;;;;;7.40;2.53;;;15.50;71.70;;;15.96;44.20;98804.78;4966248;28;114009;-70
2023/01/02 02:20:12;;;;;;;3.20;2.70;;;15.50;72.50;;;15.96;44.43;98803.94;4959378;28;123407;-70
2023/01/02 02:23:16;;;;;;;4.60;2.40;;;15.50;72.00;;;15.94;44.43;98803.50;4959960;28;124425;-70
2023/01/02 02:26:10;;;;;;;3.70;2.40;;;15.50;72.10;;;15.90;44.62;98793.06;4962550;28;115471;-70
2023/01/02 02:28:55;;;;;;;4.10;2.60;;;15.50;72.20;;;15.89;44.67;98796.19;4956485;28;114848;-70
2023/01/02 02:31:59;;;;;;;5.73;2.80;;;15.40;72.20;;;15.79;44.72;98786.31;4952210;28;123589;-70
2023/01/02 02:35:05;;;;;;;4.63;3.07;;;15.30;72.30;;;15.74;44.87;98778.19;4958963;28;123825;-69
2023/01/02 02:37:52;;;;;;;4.57;2.83;;;15.30;72.50;;;15.71;45.02;98776.09;4905401;28;114147;-70
2023/01/02 02:40:33;;;;;;;4.50;2.77;;;15.20;72.60;;;15.71;44.92;98773.31;4946670;28;114226;-72
2023/01/02 02:43:46;;;;;;;4.93;2.93;;;15.20;72.60;;;15.70;44.85;98763.34;4946744;28;124536;-71
2023/01/02 02:46:51;;;;;;;4.73;3.13;;;15.20;72.70;;;15.67;45.20;98766.78;4970127;28;124200;-71
2023/01/02 02:50:02;;;;;;;6.80;2.70;;;15.20;72.80;;;15.65;45.14;98766.31;4969014;28;114061;-71
2023/01/02 02:52:39;;;;;;;4.70;2.67;;;15.20;72.90;;;15.66;45.19;98765.13;4969185;28;113349;-71
2023/01/02 02:55:23;;;;;;;4.70;2.60;;;15.30;73.10;;;15.64;45.43;98757.16;4961215;28;124360;-71
2023/01/02 02:57:50;;;;;;;3.80;2.57;;;15.20;73.10;;;15.64;45.30;98757.16;4966970;28;123879;-71
2023/01/02 03:00:20;;;;;;;5.47;2.70;;;15.20;73.20;;;15.64;45.41;98759.13;4952323;28;113353;-71
2023/01/02 03:02:47;;;;;;;3.53;2.30;;;15.20;73.30;;;15.65;45.61;98757.97;4966683;28;113965;-71
2023/01/02 03:05:36;;;;;;;2.70;1.97;;;15.20;73.40;;;15.65;45.59;98750.41;4969635;28;124126;-71
2023/01/02 03:08:33;;;;;;;2.80;2.17;;;15.20;73.50;;;15.65;45.53;98741.25;4967364;28;123755;-71
2023/01/02 03:11:01;;;;;;;2.90;2.20;;;15.20;73.60;;;15.64;45.45;98748.78;4972032;28;113568;-71
2023/01/02 03:14:00;;;;;;;4.03;2.03;;;15.20;73.60;;;15.66;45.31;98737.28;4998692;28;113647;-71
2023/01/02 03:16:41;;;;;;;3.63;1.93;;;15.20;73.50;;;15.70;45.10;98740.25;4969172;28;124044;-70
2023/01/02 03:19:41;;;;;;;1.93;1.73;;;15.20;73.20;;;15.71;44.84;98739.88;4965367;28;123323;-71
2023/01/02 03:22:17;;;;;;;2.43;1.50;;;15.20;72.80;;;15.78;44.44;98736.53;4965464;28;115259;-71
2023/01/02 03:24:47;;;;;;;3.20;1.67;;;15.30;72.70;;;15.82;44.24;98738.25;4969023;28;114801;-71
2023/01/02 03:27:21;;;;;;;2.80;1.60;;;15.30;72.50;;;15.88;44.49;98744.41;4969686;28;124220;-71
2023/01/02 03:30:07;;;;;;;12.97;1.80;;;15.30;72.20;;;15.93;43.94;98741.38;4971600;28;123167;-71
2023/01/02 03:32:42;;;;;;;1.93;1.27;;;15.40;71.90;;;15.99;43.95;98744.75;4955550;28;113168;-71
2023/01/02 03:35:14;;;;;;;3.17;1.57;;;15.40;71.80;;;16.04;43.41;98750.06;4969613;28;113970;-71
2023/01/02 03:37:49;;;;;;;1.90;1.47;;;15.50;71.50;;;16.09;43.34;98747.03;4965402;28;124303;-70
2023/01/02 03:40:24;;;;;;;5.07;2.07;;;15.50;71.20;;;16.14;43.18;98752.38;4965614;28;124663;-70
2023/01/02 03:43:05;;;;;;;6.10;1.60;;;15.50;70.90;;;16.17;42.94;98746.09;4968985;28;114106;-70
2023/01/02 03:45:39;;;;;;;3.90;1.63;;;15.60;70.80;;;16.21;42.97;98760.97;4967839;28;113937;-71
2023/01/02 03:48:32;;;;;;;8.53;1.43;;;15.70;70.80;;;16.24;42.79;98749.13;4966203;28;124578;-71
2023/01/02 03:51:01;;;;;;;5.73;1.60;;;15.70;70.50;;;16.27;42.85;98751.19;4967905;28;124437;-71
2023/01/02 03:53:29;;;;;;;4.37;1.50;;;15.80;70.50;;;16.30;42.82;98756.06;4959733;28;113762;-71
2023/01/02 03:56:38;;;;;;;4.40;1.50;;;16.00;70.40;;;16.32;42.53;98748.19;4964676;28;114001;-71
2023/01/02 03:59:35;;;;;;;3.53;1.60;;;15.80;70.00;;;16.33;42.40;98744.25;4966995;28;124546;-71
2023/01/02 04:02:12;;;;;;;1.33;1.23;;;15.80;69.80;;;16.37;42.16;98754.69;4957902;28;122938;-71
2023/01/02 04:04:54;;;;;;;4.07;1.53;;;15.80;69.70;;;16.39;42.41;98750.38;4968197;28;114130;-71
2023/01/02 04:07:40;;;;;;;2.20;1.30;;;15.90;69.80;;;16.42;42.26;98760.03;4970950;28;114684;-70
2023/01/02 04:10:10;;;;;;;2.17;1.40;;;15.90;69.50;;;16.43;42.04;98759.66;4970173;28;124636;-71
2023/01/02 04:12:39;;;;;;;2.60;1.37;;;15.90;69.40;;;16.44;42.15;98769.66;4968051;28;123654;-71
2023/01/02 04:15:08;;;;;;;2.10;1.10;;;15.90;69.20;;;16.45;42.07;98754.53;4957967;28;115454;-71
2023/01/02 04:17:42;;;;;;;2.03;1.50;;;15.90;69.10;;;16.46;42.04;98758.94;4970515;28;115954;-71
2023/01/02 04:20:19;;;;;;;2.97;1.30;;;15.90;69.10;;;16.48;41.95;98756.63;4979951;28;123869;-70
2023/01/02 04:23:11;;;;;;;3.43;1.53;;;16.00;69.10;;;16.49;41.82;98751.84;4967682;28;124423;-70
2023/01/02 04:25:56;;;;;;;2.10;1.33;;;16.00;68.80;;;16.49;41.96;98749.88;4967870;28;113545;-71
2023/01/02 04:28:27;;;;;;;2.27;1.40;;;16.00;68.90;;;16.50;41.99;98742.34;4965226;28;113998;-71
2023/01/02 04:31:18;;;;;;;3.20;1.60;;;16.00;69.00;;;16.51;41.89;98727.22;4986861;28;122895;-71
2023/01/02 04:33:56;;;;;;;2.77;1.47;;;16.00;68.90;;;16.50;42.02;98722.81;4968257;28;123792;-70
2023/01/02 04:36:23;;;;;;;8.27;1.90;;;16.00;69.00;;;16.50;42.04;98731.97;4971254;28;113819;-71
2023/01/02 04:38:49;;;;;;;2.93;1.60;;;16.00;69.00;;;16.50;42.13;98723.63;4960075;28;113968;-71
2023/01/02 04:41:28;;;;;;;5.80;1.50;;;16.00;68.90;;;16.51;41.85;98716.88;4957709;28;124579;-70
2023/01/02 04:43:58;;;;;;;4.53;1.90;;;16.00;68.80;;;16.52;41.87;98720.47;4982655;28;123834;-71
2023/01/02 04:46:27;;;;;;;3.50;1.60;;;16.00;68.90;;;16.53;42.13;98717.31;4970581;28;114060;-71
2023/01/02 04:48:55;;;;;;;3.47;1.83;;;16.00;69.00;;;16.53;41.81;98722.09;4968502;28;114288;-71
2023/01/02 04:51:22;;;;;;;4.13;1.90;;;16.00;68.80;;;16.52;42.05;98715.72;4967800;28;123837;-71
2023/01/02 04:53:50;;;;;;;3.20;1.77;;;16.00;68.90;;;16.53;42.08;98717.31;4968697;28;124200;-71
2023/01/02 04:56:17;;;;;;;3.03;1.73;;;16.00;68.90;;;16.53;41.84;98714.53;4956257;28;116214;-70
2023/01/02 04:58:45;;;;;;;3.40;2.07;;;16.00;68.80;;;16.53;42.00;98722.09;4947948;28;113053;-70
2023/01/02 05:01:14;;;;;;;2.23;1.47;;;16.00;68.70;;;16.51;41.77;98725.22;4966810;28;124414;-70
2023/01/02 05:03:43;;;;;;;3.83;1.50;;;16.00;68.90;;;16.51;41.88;98721.63;4957553;28;123539;-69
2023/01/02 05:06:10;;;;;;;2.80;1.80;;;16.00;68.80;;;16.51;42.02;98727.22;4967030;28;114940;-70
2023/01/02 05:08:37;;;;;;;2.40;1.80;;;16.00;68.80;;;16.50;41.79;98728.38;5001338;28;114720;-70
2023/01/02 05:11:18;;;;;;;3.20;1.40;;;16.00;68.80;;;16.50;41.60;98720.03;4967390;28;124056;-70
2023/01/02 05:13:45;;;;;;;1.87;1.40;;;16.00;68.60;;;16.48;41.71;98725.94;4955520;28;123538;-70
2023/01/02 05:16:12;;;;;;;2.60;1.90;;;16.40;69.00;;;16.45;41.87;98723.88;4965468;28;114392;-69
2023/01/02 05:18:38;;;;;;;2.33;1.50;;;15.90;68.50;;;16.43;41.87;98719.81;4967504;28;113996;-70
2023/01/02 05:23:57;;;;;;;1.80;1.23;;;15.90;68.50;;;16.39;41.85;98730.03;4970200;28;124334;-70
2023/01/02 05:26:23;;;;;;;3.20;1.87;;;16.30;68.90;;;16.37;41.86;98729.59;4967979;28;114315;-70
2023/01/02 05:28:54;;;;;;;3.67;1.43;;;15.80;68.40;;;16.36;41.58;98731.53;4966377;28;113923;-69
2023/01/02 05:31:20;;;;;;;3.67;2.00;;;15.90;68.40;;;16.36;41.88;98728.75;5001741;28;123105;-70
2023/01/02 05:33:55;;;;;;;2.13;1.67;;;15.90;68.40;;;16.38;41.67;98731.19;4968303;28;124061;-69
2023/01/02 05:36:24;;;;;;;2.43;1.50;;;15.90;68.40;;;16.38;41.53;98737.59;4967080;28;113617;-70
2023/01/02 05:38:51;;;;;;;2.07;1.40;;;15.90;68.20;;;16.41;41.50;98730.50;4963571;28;113889;-69
2023/01/02 05:41:19;;;;;;;1.40;1.20;;;15.90;68.10;;;16.43;41.46;98730.97;4961920;28;124690;-70
2023/01/02 05:43:46;;;;;;;5.70;1.97;;;15.90;68.20;;;16.45;41.50;98734.22;4966570;28;123985;-69
2023/01/02 05:46:18;;;;;;;2.53;1.53;;;15.90;68.10;;;16.47;41.29;98731.84;4968236;28;114767;-70
2023/01/02 05:48:45;;;;;;;2.80;1.20;;;16.10;68.20;;;16.48;41.24;98730.72;4967058;28;114083;-69
2023/01/02 05:51:14;;;;;;;1.90;1.30;;;16.00;68.00;;;16.48;41.41;98734.31;4967604;28;124520;-70
2023/01/02 05:53:41;;;;;;;1.67;1.57;;;16.00;68.00;;;16.50;41.18;98725.59;4969021;28;122348;-69
2023/01/02 05:56:11;;;;;;;2.40;1.47;;;16.00;67.90;;;16.48;41.42;98731.53;4967459;28;115192;-70
2023/01/02 05:58:40;;;;;;;2.00;1.47;;;16.10;67.90;;;16.49;41.25;98723.97;4972051;28;114569;-70
2023/01/02 06:01:10;;;;;;;2.70;1.37;;;15.90;67.60;;;16.47;41.27;98726.28;4966152;28;124399;-70
2023/01/02 06:03:37;;;;;;;2.20;1.50;;;16.00;67.60;;;16.45;41.07;98735.03;4966196;28;123781;-70
2023/01/02 06:06:06;;;;;;;5.23;2.43;;;16.00;67.40;;;16.41;40.93;98730.50;4967594;28;114807;-70
2023/01/02 06:08:33;;;;;;;3.67;1.50;;;15.90;67.20;;;16.38;40.88;98736.78;4952698;28;113543;-69
2023/01/02 06:11:00;;;;;;;3.20;1.53;;;15.90;67.10;;;16.37;40.95;98732.38;4965911;28;124477;-70
2023/01/02 06:13:31;;;;;;;3.17;1.53;;;15.90;67.00;;;16.38;40.85;98739.56;4967948;28;123600;-70
2023/01/02 06:15:59;;;;;;;2.40;1.80;;;15.90;66.80;;;16.38;40.46;98732.00;4967074;28;114209;-69
2023/01/02 06:18:26;;;;;;;2.57;1.70;;;15.80;66.50;;;16.40;40.54;98737.25;4967880;28;113817;-70
2023/01/02 06:21:02;;;;;;;10.57;2.17;;;15.90;66.50;;;16.40;40.50;98745.63;4960174;28;124353;-70
2023/01/02 06:23:29;;;;;;;4.13;1.90;;;15.90;66.40;;;16.41;40.36;98747.22;4967334;28;123686;-69
2023/01/02 06:26:04;;;;;;;4.03;1.73;;;15.90;66.40;;;16.42;40.10;98735.72;4963441;28;114675;-70
2023/01/02 06:28:30;;;;;;;1.97;1.77;;;15.90;66.10;;;16.42;40.12;98741.31;4970956;28;113627;-70
2023/01/02 06:31:02;;;;;;;3.73;1.97;;;15.90;65.90;;;16.42;40.00;98743.28;4970602;28;124184;-70
2023/01/02 06:33:30;;;;;;;5.90;1.50;;;15.90;65.60;;;16.42;39.90;98746.06;4966039;28;124067;-70
2023/01/02 06:36:03;;;;;;;3.33;1.90;;;15.90;65.40;;;16.42;39.70;98746.88;4963297;28;114125;-70
2023/01/02 06:38:29;;;;;;;4.73;2.43;;;17.30;66.70;;;16.44;39.51;98749.31;4998822;28;113498;-70
2023/01/02 06:40:59;;;;;;;4.83;1.90;;;15.90;65.00;;;16.45;39.58;98753.72;4954016;28;123470;-70
2023/01/02 06:43:27;;;;;;;4.13;1.93;;;16.00;65.00;;;16.47;39.83;98766.16;4970899;28;123619;-70
2023/01/02 06:46:00;;;;;;;4.17;2.00;;;16.00;65.10;;;16.50;39.59;98767.44;4966015;28;115078;-70
2023/01/02 06:48:27;;;;;;;2.90;1.50;;;16.00;65.10;;;16.53;39.80;98769.50;4963545;28;115329;-70
2023/01/02 06:50:54;;;;;;;4.90;1.90;;;16.00;65.20;;;16.54;39.67;98773.91;4970447;28;123842;-70
2023/01/02 06:53:20;;;;;;;6.17;2.03;;;16.10;65.20;;;16.55;39.62;98775.56;4970978;28;123656;-71
2023/01/02 06:55:56;;;;;;;3.93;1.57;;;16.00;65.10;;;16.57;39.72;98778.78;4970987;28;114253;-72
2023/01/02 06:58:23;;;;;;;3.57;1.83;;;16.10;65.20;;;16.59;39.87;98776.47;4965062;28;114711;-71
2023/01/02 07:00:51;;;;;;;4.47;1.70;;;16.10;65.30;;;16.60;39.55;98778.06;4965873;28;124566;-70
2023/01/02 07:03:18;;;;;;;3.93;1.70;;;16.20;65.20;;;16.60;39.49;98785.63;4960925;28;123905;-70
2023/01/02 07:05:45;;;;;;;4.27;2.10;;;16.10;65.00;;;16.59;39.76;98790.41;4969457;28;114698;-70
2023/01/02 07:08:12;;;;;;;5.20;2.17;;;16.10;65.00;;;16.57;39.59;98793.53;4969163;28;114436;-70
2023/01/02 07:10:38;;;;;;;4.90;2.43;;;16.10;65.00;;;16.59;39.58;98796.00;4953193;28;124011;-75
2023/01/02 07:13:05;;;;;;;6.20;1.67;;;16.10;64.80;;;16.60;39.60;98794.00;4957194;28;123960;-76
2023/01/02 07:15:32;;;;;;;3.37;1.60;;;16.10;64.90;;;16.63;39.50;98794.13;4966469;28;114369;-74
2023/01/02 07:17:58;;;;;;;5.30;2.03;;;16.10;64.90;;;16.63;39.58;98791.34;4967967;28;114032;-72
2023/01/02 07:20:25;;;;;;;6.40;2.07;;;16.10;64.90;;;16.65;39.39;98800.16;4969785;28;123679;-72
2023/01/02 07:22:53;;;;;;;3.77;1.90;;;16.40;65.10;;;16.66;39.51;98812.16;4966063;28;123782;-71
2023/01/02 07:25:21;;;;;;;3.40;2.10;;;16.20;64.80;;;16.64;39.63;98809.69;4988240;28;113340;-71
2023/01/02 07:27:47;;;;;;;3.17;1.83;;;17.20;65.70;;;16.65;39.57;98816.88;4970680;28;113481;-71
2023/01/02 07:30:14;;;;;;;2.10;1.70;;;16.20;64.80;;;16.65;39.47;98822.47;4969064;28;124259;-72
2023/01/02 07:32:43;;;;;;;4.73;2.17;;;16.20;64.70;;;16.66;39.59;98826.91;5001923;28;123935;-71
2023/01/02 07:35:10;;;;;;;4.10;1.57;;;13.90;62.60;;;16.66;39.57;98828.88;4970399;28;115561;-72
2023/01/02 07:37:37;;;;;;;2.60;1.80;;;16.20;64.80;;;16.67;41.14;98831.31;4972035;28;113906;-72
2023/01/02 07:40:04;;;;;;;3.77;2.10;;;16.20;66.60;;;16.68;41.08;98837.69;4966436;28;124066;-72
2023/01/02 07:42:30;;;;;;;5.50;2.53;;;16.20;66.90;;;16.67;40.87;98842.47;4973029;28;123428;-71
2023/01/02 07:44:57;;;;;;;5.67;2.40;;;16.20;66.90;;;16.64;41.04;98843.16;4958654;28;114494;-72
2023/01/02 07:47:23;;;;;;;5.90;2.70;;;16.20;66.90;;;16.60;41.28;98842.22;4955754;28;114690;-73
2023/01/02 07:49:50;;;;;;;4.40;2.70;;;16.20;67.00;;;16.55;41.31;98843.31;4968799;28;124459;-72
2023/01/02 07:52:16;;;;;;;9.93;2.77;;;16.10;67.00;;;16.52;41.45;98854.34;4968366;28;125004;-73
2023/01/02 07:54:43;;;;;;;7.70;2.53;;;16.20;67.30;;;16.49;41.36;98849.47;4965591;28;114386;-72
2023/01/02 07:57:09;;;;;;;7.83;2.47;;;16.00;67.30;;;16.44;41.59;98852.50;4957597;28;114037;-74
2023/01/02 07:59:35;;;;;;;11.70;3.47;;;16.00;67.40;;;16.41;41.68;98855.97;4959898;28;124067;-72
2023/01/02 08:02:02;;;;;;;12.23;2.97;;;16.00;67.60;;;16.37;41.92;98855.06;4967447;28;123934;-74
2023/01/02 08:04:28;;;;;;;2.90;2.27;;;16.00;67.80;;;16.31;42.17;98857.28;4969169;28;114702;-74
2023/01/02 08:06:55;;;;;;;3.63;2.23;;;16.00;68.10;;;16.27;42.31;98862.72;5003325;28;114846;-75
2023/01/02 08:09:21;;;;;;;4.60;2.20;;;15.80;68.10;;;16.22;42.23;98859.34;4965667;28;124147;-74
2023/01/02 08:11:48;;;;;;;9.40;3.10;;;15.80;68.40;;;16.18;42.32;98866.81;4969223;28;124149;-74
2023/01/02 08:14:14;;;;;;;11.10;4.03;;;15.70;68.50;;;16.12;42.73;98864.25;4956535;28;116063;-74
2023/01/02 08:16:41;;;;;;;7.27;3.10;;;15.70;68.80;;;16.02;42.96;98859.13;4959067;28;113410;-74
2023/01/02 08:19:07;;;;;;;7.53;3.60;;;15.60;68.90;;;15.99;42.98;98868.19;4967331;28;124051;-74
2023/01/02 08:21:34;;;;;;;6.40;3.77;;;15.50;69.10;;;15.96;43.14;98868.03;4968841;28;124043;-75
2023/01/02 08:24:00;;;;;;;3.90;3.10;;;15.50;69.30;;;15.94;43.28;98867.59;4970044;28;115670;-74
2023/01/02 08:26:27;;;;;;;6.40;3.60;;;15.50;69.50;;;15.93;43.31;98879.88;5004081;28;115078;-73
2023/01/02 08:28:53;;;;;;;6.13;3.40;;;15.50;69.60;;;15.89;43.29;98874.22;4966723;28;124170;-73
2023/01/02 08:31:21;;;;;;;8.47;3.90;;;15.50;69.70;;;15.85;43.36;98870.47;4960320;28;123946;-73
2023/01/02 08:33:47;;;;;;;8.97;4.00;;;15.40;69.80;;;15.82;43.84;98874.75;4971939;28;113344;-73
2023/01/02 08:36:14;;;;;;;12.20;5.83;;;15.40;70.10;;;15.80;43.69;98868.75;4970195;28;114731;-74
2023/01/02 08:38:40;;;;;;;11.40;6.03;;;15.30;70.10;;;15.79;43.68;98875.44;4972152;28;123110;-75
2023/01/02 08:41:07;;;;;;;6.57;4.50;;;15.40;70.30;;;15.77;43.89;98880.59;4954323;28;122794;-75
2023/01/02 08:43:35;;;;;;;8.27;4.10;;;15.30;70.30;;;15.76;43.92;98886.47;4969235;28;114386;-77
2023/01/02 08:46:06;;;;;;;6.63;3.50;;;15.30;70.50;;;15.75;43.86;98885.69;4969130;28;114008;-76
2023/01/02 08:48:34;;;;;;;8.90;3.90;;;15.30;70.60;;;15.78;43.75;98884.97;4968530;28;123841;-75
2023/01/02 08:51:01;;;;;;;3.73;2.53;;;16.50;71.60;;;15.79;43.74;98889.38;4967140;28;123684;-74
2023/01/02 08:53:28;;;;;;;5.97;2.93;;;15.30;70.30;;;15.83;43.89;98892.31;4965007;28;114276;-75
2023/01/02 08:55:54;;;;;;;4.97;2.93;;;15.40;70.40;;;15.84;43.87;98896.72;4968014;28;114042;-74
2023/01/02 08:58:20;;;;;;;8.13;3.33;;;15.40;70.50;;;15.86;43.92;98883.25;4971557;28;123436;-74
2023/01/02 09:00:47;;;;;;;5.67;2.83;;;15.30;70.50;;;15.87;43.63;98887.66;4968319;28;124455;-75
2023/01/02 09:03:13;;;;;;;7.27;3.43;;;15.30;70.60;;;15.88;44.06;98887.34;4958450;28;114096;-74
2023/01/02 09:05:40;;;;;;;7.73;3.30;;;15.30;70.70;;;15.90;44.05;98892.53;4973391;28;113405;-73
2023/01/02 09:08:06;;;;;;;8.33;3.60;;;15.40;71.00;;;15.91;43.93;98899.75;4967678;28;124230;-71
2023/01/02 09:10:33;;;;;;;4.53;3.00;;;15.40;71.00;;;15.92;43.98;98900.56;4967389;28;123799;-74
2023/01/02 09:12:59;;;;;;;7.13;3.33;;;15.50;71.10;;;15.92;43.94;98906.13;4968224;28;114155;-71
2023/01/02 09:15:26;;;;;;;5.70;2.90;;;15.40;71.10;;;15.89;44.22;98913.22;4967664;28;114795;-75
2023/01/02 09:17:52;;;;;;;6.50;2.80;;;15.40;71.30;;;15.87;44.27;98916.34;4967776;28;124132;-70
2023/01/02 09:20:18;;;;;;;8.37;3.73;;;15.40;71.50;;;15.86;44.51;98923.06;4968016;28;124015;-72
2023/01/02 09:22:45;;;;;;;6.00;3.40;;;15.40;71.60;;;15.84;44.36;98922.59;4968034;28;114300;-74
2023/01/02 09:25:11;;;;;;;3.97;3.00;;;15.30;71.60;;;15.83;44.41;98926.56;4968288;28;114038;-74
2023/01/02 09:27:38;;;;;;;9.60;3.23;;;15.30;71.80;;;15.83;44.50;98934.91;4967448;28;124271;-75
2023/01/02 09:30:05;;;;;;;4.97;2.87;;;15.30;71.90;;;15.84;44.51;98932.94;4967849;28;123860;-73
2023/01/02 09:32:31;;;;;;;8.03;3.20;;;15.30;71.90;;;15.85;44.58;98931.75;4986680;28;113571;-74
2023/01/02 09:34:58;;;;;;;7.00;4.03;;;15.30;72.00;;;15.88;44.80;98948.63;4952942;28;112423;-74
2023/01/02 09:37:24;;;;;;;6.23;2.97;;;15.30;72.10;;;15.92;44.67;98939.56;4966749;28;123874;-73
2023/01/02 09:39:51;;;;;;;6.70;2.93;;;15.40;72.20;;;15.94;44.49;98942.84;4971973;28;124230;-72
2023/01/02 09:42:17;;;;;;;6.03;3.20;;;15.60;72.30;;;15.98;44.76;98947.34;4967881;28;114344;-71
2023/01/02 09:44:54;;;;;;;6.80;3.37;;;15.40;72.20;;;15.99;44.63;98951.78;4968371;28;114235;-73
2023/01/02 09:47:31;;;;;;;4.80;3.50;;;15.50;72.20;;;16.02;44.57;98951.09;4968684;28;123114;-71
2023/01/02 09:50:03;;;;;;;8.93;3.40;;;15.50;72.30;;;16.04;44.44;98957.16;4966758;28;123657;-73
2023/01/02 09:52:44;;;;;;;8.97;3.20;;;15.50;72.20;;;16.05;44.28;98952.38;4969480;28;113502;-72
2023/01/02 09:55:16;;;;;;;8.07;3.60;;;15.50;72.00;;;16.03;44.02;98946.34;4966588;28;113917;-73
2023/01/02 09:57:52;;;;;;;5.97;3.13;;;15.50;71.90;;;16.05;43.48;98953.19;4967072;28;124113;-74
2023/01/02 10:00:23;;;;;;;7.60;2.70;;;15.50;71.20;;;16.07;42.94;98962.03;4966815;28;123873;-72
2023/01/02 10:03:21;;;;;;;6.40;2.43;;;15.50;70.30;;;16.12;42.28;98958.22;4958028;28;114677;-73
2023/01/02 10:06:20;;;;;;;6.03;2.00;;;15.50;69.30;;;16.19;41.30;98955.66;4967285;28;115100;-73
2023/01/02 10:09:08;;;;;;;5.53;2.53;;;15.60;67.90;;;16.28;40.55;98958.31;4966516;28;123892;-75
2023/01/02 10:12:11;;;;;;;4.57;2.20;;;15.70;66.90;;;16.35;39.99;98967.75;4965921;28;123593;-73
2023/01/02 10:15:01;;;;;;;6.17;2.07;;;15.70;65.80;;;16.45;39.40;98969.28;4955776;28;114239;-73
2023/01/02 10:17:34;;;;;;;3.30;1.93;;;17.20;66.40;;;16.55;38.43;98973.59;4965827;28;113537;-72
2023/01/02 10:20:06;;;;;;;4.57;1.70;;;15.90;64.50;;;16.67;38.40;98970.00;4962384;28;123961;-73
2023/01/02 10:22:59;;;;;;;3.33;1.63;;;16.10;64.10;;;16.76;38.29;98967.88;4968051;28;123829;-74
2023/01/02 10:25:54;;;;;;;5.10;2.10;;;16.20;63.40;;;16.87;37.79;98977.47;4965575;28;114338;-76
2023/01/02 10:28:34;;;;;;;4.80;1.53;;;16.30;62.90;;;16.97;37.74;98973.38;4959229;28;113851;-73
2023/01/02 10:31:07;;;;;;;5.57;1.80;;;16.30;62.40;;;17.07;37.23;98969.28;4966241;28;124022;-72
2023/01/02 10:33:44;;;;;;;6.30;2.00;;;16.50;62.30;;;17.15;37.21;98969.16;4965478;28;123967;-72
2023/01/02 10:36:44;;;;;;;5.67;1.83;;;16.60;62.00;;;17.24;36.73;98982.97;4970600;28;114317;-72